Time;durP1;ratioP1;P1;durP2;ratioP2;P2;SDS_P1;SDS_P2;PMS_P1;PMS_P2;Temp;Humidity;BMP_temperature;BMP_pressure;BME280_temperature;BME280_humidity;BME280_pressure;Samples;Min_cycle;Max_cycle;Signal;HPM_P1;HPM_P2
2021/08/05 00:00:29;;;;;;;2.15;0.70;;;;;;;;;;5072059;28;20036;-80
2021/08/05 00:03:32;;;;;;;2.47;0.82;;;;;;;;;;5069936;28;20033;-81
2021/08/05 00:06:35;;;;;;;3.17;1.20;;;;;;;;;;5034417;28;20028;-80
2021/08/05 00:09:43;;;;;;;1.40;1.00;;;;;;;;;;5033517;28;20032;-80
2021/08/05 00:12:46;;;;;;;2.10;1.00;;;;;;;;;;5033236;28;20615;-79
2021/08/05 00:15:50;;;;;;;4.72;1.35;;;;;;;;;;5032238;28;20033;-81
2021/08/05 00:18:53;;;;;;;2.08;0.57;;;;;;;;;;5033567;28;20782;-81
2021/08/05 00:21:56;;;;;;;3.63;1.33;;;;;;;;;;5035739;28;20036;-81
2021/08/05 00:24:59;;;;;;;5.20;1.17;;;;;;;;;;5034310;28;20021;-81
2021/08/05 00:28:03;;;;;;;2.72;1.20;;;;;;;;;;5036535;28;20488;-81
2021/08/05 00:31:06;;;;;;;2.20;1.55;;;;;;;;;;5035463;28;20025;-81
2021/08/05 00:34:09;;;;;;;4.78;1.80;;;;;;;;;;5035184;28;20028;-80
2021/08/05 00:37:12;;;;;;;2.22;0.95;;;;;;;;;;5038578;28;20052;-82
2021/08/05 00:40:16;;;;;;;4.05;1.70;;;;;;;;;;5034982;28;20025;-81
2021/08/05 00:43:19;;;;;;;5.55;1.40;;;;;;;;;;5033547;28;20024;-81
2021/08/05 00:46:23;;;;;;;3.50;1.25;;;;;;;;;;5032032;28;20029;-81
2021/08/05 00:49:26;;;;;;;1.17;1.05;;;;;;;;;;5033196;28;20465;-80
2021/08/05 00:52:30;;;;;;;7.68;1.25;;;;;;;;;;5033957;28;20024;-81
2021/08/05 00:55:33;;;;;;;1.58;1.00;;;;;;;;;;5034999;28;20029;-80
2021/08/05 00:58:36;;;;;;;3.45;1.80;;;;;;;;;;5036598;28;20589;-80
2021/08/05 01:01:43;;;;;;;3.75;1.40;;;;;;;;;;5018125;28;20037;-82
2021/08/05 01:04:49;;;;;;;9.27;1.45;;;;;;;;;;5016718;28;20674;-81
2021/08/05 01:07:57;;;;;;;7.10;1.67;;;;;;;;;;5016178;28;20996;-81
2021/08/05 01:11:10;;;;;;;1.73;1.20;;;;;;;;;;5017838;28;20025;-80
2021/08/05 01:14:16;;;;;;;5.45;1.52;;;;;;;;;;5017206;28;21061;-81
2021/08/05 01:17:21;;;;;;;6.95;1.60;;;;;;;;;;5016511;28;20999;-80
2021/08/05 01:20:25;;;;;;;2.45;0.60;;;;;;;;;;5016119;28;20029;-80
2021/08/05 01:23:44;;;;;;;3.08;1.38;;;;;;;;;;5032475;28;20013;-81
2021/08/05 01:26:47;;;;;;;4.90;0.93;;;;;;;;;;5037053;28;20554;-82
2021/08/05 01:29:51;;;;;;;1.73;0.90;;;;;;;;;;5037457;28;21067;-81
2021/08/05 01:32:55;;;;;;;2.53;1.70;;;;;;;;;;5038036;28;20685;-81
2021/08/05 01:36:00;;;;;;;4.05;1.70;;;;;;;;;;5036397;28;20016;-81
2021/08/05 01:39:02;;;;;;;3.90;1.42;;;;;;;;;;5035595;28;21051;-79
2021/08/05 01:42:07;;;;;;;15.25;2.03;;;;;;;;;;5036224;28;20024;-82
2021/08/05 01:45:10;;;;;;;1.35;1.17;;;;;;;;;;5036959;28;20791;-80
2021/08/05 01:48:14;;;;;;;6.78;1.77;;;;;;;;;;5037872;28;20648;-80
2021/08/05 01:51:21;;;;;;;5.75;1.92;;;;;;;;;;5035776;28;20032;-80
2021/08/05 01:54:24;;;;;;;2.97;1.50;;;;;;;;;;5036313;28;20550;-80
2021/08/05 01:57:27;;;;;;;4.60;1.42;;;;;;;;;;5034813;28;20793;-80
2021/08/05 02:00:30;;;;;;;2.55;1.45;;;;;;;;;;5036730;28;20025;-81
2021/08/05 02:03:34;;;;;;;2.42;1.70;;;;;;;;;;5037005;28;20131;-82
2021/08/05 02:06:45;;;;;;;1.85;1.30;;;;;;;;;;5036241;28;20536;-81
2021/08/05 02:10:04;;;;;;;5.88;1.38;;;;;;;;;;5036475;28;21019;-80
2021/08/05 02:13:26;;;;;;;5.95;2.72;;;;;;;;;;5036196;28;20016;-81
2021/08/05 02:16:30;;;;;;;1.60;0.95;;;;;;;;;;5037216;28;20024;-81
2021/08/05 02:19:34;;;;;;;3.53;1.35;;;;;;;;;;5037767;28;20040;-81
2021/08/05 02:22:39;;;;;;;3.35;1.92;;;;;;;;;;5036095;28;21615;-80
2021/08/05 02:25:43;;;;;;;4.18;1.60;;;;;;;;;;5037222;28;20029;-81
2021/08/05 02:28:47;;;;;;;6.03;1.75;;;;;;;;;;5036763;28;20122;-80
2021/08/05 02:31:50;;;;;;;6.03;1.98;;;;;;;;;;5038385;28;21031;-80
2021/08/05 02:34:55;;;;;;;4.10;1.90;;;;;;;;;;5035969;28;20994;-80
2021/08/05 02:37:58;;;;;;;2.42;1.23;;;;;;;;;;5036780;28;20610;-81
2021/08/05 02:41:02;;;;;;;4.90;1.10;;;;;;;;;;5036018;28;20029;-79
2021/08/05 02:44:05;;;;;;;4.13;1.70;;;;;;;;;;5034569;28;20032;-79
2021/08/05 02:47:08;;;;;;;3.35;1.00;;;;;;;;;;5034242;28;21004;-80
2021/08/05 02:50:13;;;;;;;4.78;1.65;;;;;;;;;;5036867;28;20021;-81
2021/08/05 02:53:17;;;;;;;4.07;1.20;;;;;;;;;;5034619;28;20028;-79
2021/08/05 02:56:20;;;;;;;4.55;1.63;;;;;;;;;;5034463;28;20028;-80
2021/08/05 02:59:26;;;;;;;3.40;1.90;;;;;;;;;;5035265;28;20050;-80
2021/08/05 03:02:29;;;;;;;3.83;1.17;;;;;;;;;;5035674;28;20497;-80
2021/08/05 03:05:32;;;;;;;2.83;1.00;;;;;;;;;;5034993;28;20028;-81
2021/08/05 03:08:39;;;;;;;6.65;1.88;;;;;;;;;;5034259;28;21019;-80
2021/08/05 03:11:43;;;;;;;2.17;1.25;;;;;;;;;;5035270;28;20631;-80
2021/08/05 03:14:46;;;;;;;2.20;1.40;;;;;;;;;;5035239;28;20033;-80
2021/08/05 03:17:50;;;;;;;3.15;0.85;;;;;;;;;;5034274;28;20040;-80
2021/08/05 03:20:54;;;;;;;4.30;1.00;;;;;;;;;;5037299;28;21080;-80
2021/08/05 03:23:57;;;;;;;4.50;1.20;;;;;;;;;;5036835;28;20977;-80
2021/08/05 03:27:00;;;;;;;2.90;1.05;;;;;;;;;;5035275;28;20040;-80
2021/08/05 03:30:05;;;;;;;2.53;1.60;;;;;;;;;;5035331;28;20671;-80
2021/08/05 03:33:08;;;;;;;3.72;2.28;;;;;;;;;;5035275;28;20994;-80
2021/08/05 03:36:11;;;;;;;2.17;1.35;;;;;;;;;;5035762;28;20674;-80
2021/08/05 03:39:14;;;;;;;2.40;0.80;;;;;;;;;;5055154;28;20044;-80
2021/08/05 03:42:18;;;;;;;4.03;1.48;;;;;;;;;;5071599;28;20036;-80
2021/08/05 03:45:21;;;;;;;2.58;1.50;;;;;;;;;;5071642;28;20045;-80
2021/08/05 03:48:24;;;;;;;2.08;0.73;;;;;;;;;;5071152;28;20037;-81
2021/08/05 03:51:27;;;;;;;6.57;2.30;;;;;;;;;;5072004;28;20036;-81
2021/08/05 03:54:30;;;;;;;3.13;1.60;;;;;;;;;;5071141;28;20040;-81
2021/08/05 03:57:33;;;;;;;7.40;2.08;;;;;;;;;;5071462;28;20044;-80
2021/08/05 04:00:36;;;;;;;4.07;1.85;;;;;;;;;;5071782;28;20036;-80
2021/08/05 04:03:39;;;;;;;7.75;1.83;;;;;;;;;;5071972;28;20040;-80
2021/08/05 04:06:43;;;;;;;4.00;1.75;;;;;;;;;;5071880;28;20378;-80
2021/08/05 04:09:46;;;;;;;4.40;1.63;;;;;;;;;;5071847;28;20040;-80
2021/08/05 04:12:50;;;;;;;6.05;2.08;;;;;;;;;;5071370;28;20036;-81
2021/08/05 04:15:52;;;;;;;2.92;1.08;;;;;;;;;;5067919;28;20040;-80
2021/08/05 04:18:55;;;;;;;3.78;1.52;;;;;;;;;;5052887;28;20045;-81
2021/08/05 04:21:59;;;;;;;7.63;1.90;;;;;;;;;;5051171;28;20040;-81
2021/08/05 04:25:06;;;;;;;6.07;2.15;;;;;;;;;;5060576;28;20040;-80
2021/08/05 04:28:09;;;;;;;4.85;2.25;;;;;;;;;;5071277;28;20032;-81
2021/08/05 04:31:12;;;;;;;4.25;1.75;;;;;;;;;;5074166;28;20037;-80
2021/08/05 04:34:15;;;;;;;1.98;1.52;;;;;;;;;;5074233;28;20041;-80
2021/08/05 04:37:20;;;;;;;3.65;2.33;;;;;;;;;;5074990;28;20037;-80
2021/08/05 04:40:23;;;;;;;2.22;0.93;;;;;;;;;;5074765;28;20048;-80
2021/08/05 04:43:26;;;;;;;4.13;1.17;;;;;;;;;;5075727;28;20036;-80
2021/08/05 04:46:29;;;;;;;5.50;1.70;;;;;;;;;;5075260;28;20052;-80
2021/08/05 04:49:33;;;;;;;6.53;1.73;;;;;;;;;;5075542;28;20040;-78
2021/08/05 04:52:36;;;;;;;4.88;2.08;;;;;;;;;;5074636;28;20045;-78
2021/08/05 04:55:39;;;;;;;17.05;3.80;;;;;;;;;;5075247;28;20048;-78
2021/08/05 04:58:42;;;;;;;9.18;2.53;;;;;;;;;;5074126;28;20051;-78
2021/08/05 05:01:47;;;;;;;6.60;2.17;;;;;;;;;;5054760;28;20041;-78
2021/08/05 05:04:50;;;;;;;13.18;2.55;;;;;;;;;;5055754;28;20041;-78
2021/08/05 05:07:54;;;;;;;7.53;2.90;;;;;;;;;;5055613;28;20048;-78
2021/08/05 05:10:57;;;;;;;6.50;1.52;;;;;;;;;;5055082;28;20037;-78
2021/08/05 05:14:00;;;;;;;4.75;1.88;;;;;;;;;;5055455;28;20128;-78
2021/08/05 05:17:04;;;;;;;6.53;1.90;;;;;;;;;;5055406;28;20037;-78
2021/08/05 05:20:08;;;;;;;15.88;2.20;;;;;;;;;;5067602;28;20044;-78
2021/08/05 05:23:11;;;;;;;3.58;1.45;;;;;;;;;;5071523;28;20047;-78
2021/08/05 05:26:15;;;;;;;8.00;2.10;;;;;;;;;;5071882;28;20477;-78
2021/08/05 05:29:18;;;;;;;6.22;2.13;;;;;;;;;;5073197;28;20366;-78
2021/08/05 05:32:25;;;;;;;6.82;2.33;;;;;;;;;;5073239;28;20040;-78
2021/08/05 05:35:29;;;;;;;5.82;2.25;;;;;;;;;;5071217;28;20433;-78
2021/08/05 05:38:32;;;;;;;6.05;1.80;;;;;;;;;;5071324;28;20044;-78
2021/08/05 05:41:35;;;;;;;6.93;2.58;;;;;;;;;;5071562;28;20044;-78
2021/08/05 05:44:38;;;;;;;3.03;1.65;;;;;;;;;;5072818;28;20040;-78
2021/08/05 05:47:41;;;;;;;9.13;2.83;;;;;;;;;;5072843;28;20370;-78
2021/08/05 05:50:45;;;;;;;15.40;2.40;;;;;;;;;;5074672;28;20369;-78
2021/08/05 05:53:48;;;;;;;5.35;2.50;;;;;;;;;;5074656;28;20393;-78
2021/08/05 05:56:51;;;;;;;9.68;3.67;;;;;;;;;;5074454;28;20044;-78
2021/08/05 05:59:54;;;;;;;6.63;2.70;;;;;;;;;;5073999;28;20052;-78
2021/08/05 06:02:57;;;;;;;6.63;2.25;;;;;;;;;;5074560;28;20045;-78
2021/08/05 06:06:01;;;;;;;5.13;2.40;;;;;;;;;;5073926;28;20044;-78
2021/08/05 06:09:04;;;;;;;8.07;1.67;;;;;;;;;;5074419;28;20041;-78
2021/08/05 06:12:07;;;;;;;6.20;2.25;;;;;;;;;;5074039;28;20048;-79
2021/08/05 06:15:11;;;;;;;2.53;2.00;;;;;;;;;;5074427;28;20040;-78
2021/08/05 06:18:14;;;;;;;6.95;1.75;;;;;;;;;;5074322;28;20040;-78
2021/08/05 06:21:17;;;;;;;7.20;2.03;;;;;;;;;;5074181;28;20041;-78
2021/08/05 06:24:20;;;;;;;3.83;1.50;;;;;;;;;;5073858;28;20049;-79
2021/08/05 06:27:24;;;;;;;4.68;1.33;;;;;;;;;;5072467;28;20029;-80
2021/08/05 06:30:27;;;;;;;8.13;1.88;;;;;;;;;;5072373;28;20037;-79
2021/08/05 06:33:31;;;;;;;3.38;2.00;;;;;;;;;;5072248;28;20049;-78
2021/08/05 06:36:35;;;;;;;3.35;1.60;;;;;;;;;;5072220;28;20032;-78
2021/08/05 06:39:38;;;;;;;7.38;1.65;;;;;;;;;;5053344;28;20057;-78
2021/08/05 06:42:42;;;;;;;4.00;1.90;;;;;;;;;;5052673;28;20049;-77
2021/08/05 06:45:45;;;;;;;4.15;2.13;;;;;;;;;;5053621;28;20041;-77
2021/08/05 06:48:48;;;;;;;5.10;2.05;;;;;;;;;;5053917;28;20477;-77
2021/08/05 06:51:51;;;;;;;3.33;1.58;;;;;;;;;;5052946;28;20045;-77
2021/08/05 06:54:54;;;;;;;3.58;1.20;;;;;;;;;;5053854;28;20041;-77
2021/08/05 06:57:57;;;;;;;6.55;1.48;;;;;;;;;;5053582;28;20378;-77
2021/08/05 07:01:01;;;;;;;4.30;1.75;;;;;;;;;;5070534;28;20462;-77
2021/08/05 07:04:04;;;;;;;6.80;1.77;;;;;;;;;;5073280;28;20036;-74
2021/08/05 07:07:07;;;;;;;4.90;1.50;;;;;;;;;;5072973;28;20036;-75
2021/08/05 07:10:11;;;;;;;1.52;1.00;;;;;;;;;;5073044;28;20044;-75
2021/08/05 07:13:14;;;;;;;3.17;1.40;;;;;;;;;;5072974;28;20036;-77
2021/08/05 07:16:17;;;;;;;4.30;1.30;;;;;;;;;;5073159;28;20058;-77
2021/08/05 07:19:20;;;;;;;2.35;0.80;;;;;;;;;;5072418;28;20048;-77
2021/08/05 07:22:23;;;;;;;7.35;1.55;;;;;;;;;;5072569;28;20066;-77
2021/08/05 07:25:26;;;;;;;7.50;2.10;;;;;;;;;;5072279;28;20492;-77
2021/08/05 07:28:29;;;;;;;6.10;2.25;;;;;;;;;;5046919;28;20045;-74
2021/08/05 07:31:32;;;;;;;4.63;1.63;;;;;;;;;;5042633;28;20024;-76
2021/08/05 07:34:36;;;;;;;4.25;1.52;;;;;;;;;;5042938;28;20033;-76
2021/08/05 07:37:39;;;;;;;7.95;2.15;;;;;;;;;;5043127;28;20032;-75
2021/08/05 07:40:43;;;;;;;5.93;1.83;;;;;;;;;;5065787;28;20106;-74
2021/08/05 07:43:47;;;;;;;4.85;2.22;;;;;;;;;;5072400;28;20040;-73
2021/08/05 07:46:50;;;;;;;6.05;2.30;;;;;;;;;;5072572;28;20040;-74
2021/08/05 07:49:53;;;;;;;3.45;1.73;;;;;;;;;;5072488;28;20449;-74
2021/08/05 07:52:56;;;;;;;5.32;2.08;;;;;;;;;;5072642;28;20469;-73
2021/08/05 07:55:59;;;;;;;4.70;1.67;;;;;;;;;;5072911;28;20045;-74
2021/08/05 07:59:02;;;;;;;5.15;1.65;;;;;;;;;;5072904;28;20044;-75
2021/08/05 08:02:05;;;;;;;2.60;0.90;;;;;;;;;;5072873;28;20037;-76
2021/08/05 08:05:11;;;;;;;2.15;1.25;;;;;;;;;;5072829;28;20036;-74
2021/08/05 08:08:16;;;;;;;6.80;2.05;;;;;;;;;;5070705;28;20036;-74
2021/08/05 08:11:23;;;;;;;12.70;1.23;;;;;;;;;;5070790;28;20481;-74
2021/08/05 08:14:26;;;;;;;9.32;1.75;;;;;;;;;;5070686;28;20039;-76
2021/08/05 08:17:29;;;;;;;2.00;1.13;;;;;;;;;;5070714;28;20044;-74
2021/08/05 08:20:32;;;;;;;1.48;0.85;;;;;;;;;;5070553;28;20044;-74
2021/08/05 08:23:35;;;;;;;3.20;1.25;;;;;;;;;;5071095;28;20041;-74
2021/08/05 08:26:39;;;;;;;2.42;0.93;;;;;;;;;;5071975;28;20477;-75
2021/08/05 08:29:42;;;;;;;6.03;1.65;;;;;;;;;;5071747;28;20040;-75
2021/08/05 08:32:47;;;;;;;4.82;0.93;;;;;;;;;;5073507;28;20049;-75
2021/08/05 08:35:50;;;;;;;2.92;1.55;;;;;;;;;;5075904;28;20044;-74
2021/08/05 08:38:54;;;;;;;1.73;0.95;;;;;;;;;;5071789;28;20048;-75
2021/08/05 08:41:58;;;;;;;1.95;1.00;;;;;;;;;;5072008;28;20388;-74
2021/08/05 08:45:02;;;;;;;3.97;0.98;;;;;;;;;;5072123;28;20049;-74
2021/08/05 08:48:06;;;;;;;3.13;1.20;;;;;;;;;;5072053;28;20107;-74
2021/08/05 08:51:10;;;;;;;4.22;0.73;;;;;;;;;;5071790;28;20370;-75
2021/08/05 08:54:14;;;;;;;8.68;1.05;;;;;;;;;;5071975;28;20044;-74
2021/08/05 08:57:20;;;;;;;4.88;0.80;;;;;;;;;;5071756;28;20032;-73
2021/08/05 09:00:23;;;;;;;7.93;1.90;;;;;;;;;;5071330;28;20630;-73
2021/08/05 09:03:28;;;;;;;7.03;0.65;;;;;;;;;;5071250;28;20037;-73
2021/08/05 09:06:31;;;;;;;4.95;1.27;;;;;;;;;;5071393;28;20037;-72
2021/08/05 09:09:34;;;;;;;3.25;0.82;;;;;;;;;;5071395;28;20044;-74
2021/08/05 09:12:41;;;;;;;3.08;0.75;;;;;;;;;;5071663;28;20041;-74
2021/08/05 09:15:45;;;;;;;1.50;0.25;;;;;;;;;;5075029;28;20041;-74
2021/08/05 09:18:49;;;;;;;2.70;1.17;;;;;;;;;;5074761;28;20044;-73
2021/08/05 09:21:53;;;;;;;1.33;0.47;;;;;;;;;;5075364;28;20049;-73
2021/08/05 09:24:56;;;;;;;0.95;0.38;;;;;;;;;;5075209;28;20044;-73
2021/08/05 09:28:11;;;;;;;2.25;0.40;;;;;;;;;;5074871;28;20381;-74
2021/08/05 09:31:15;;;;;;;3.08;0.43;;;;;;;;;;5074402;28;20036;-73
2021/08/05 09:34:19;;;;;;;4.38;0.65;;;;;;;;;;5075114;28;20362;-73
2021/08/05 09:37:33;;;;;;;1.55;0.63;;;;;;;;;;5074646;28;20045;-75
2021/08/05 09:40:36;;;;;;;0.85;0.28;;;;;;;;;;5074404;28;20362;-75
2021/08/05 09:43:39;;;;;;;0.90;0.50;;;;;;;;;;5074665;28;20402;-74
2021/08/05 09:46:42;;;;;;;2.80;0.95;;;;;;;;;;5074591;28;20070;-74
2021/08/05 09:49:45;;;;;;;7.20;1.48;;;;;;;;;;5075072;28;20032;-77
2021/08/05 09:52:49;;;;;;;5.68;1.20;;;;;;;;;;5074545;28;20048;-76
2021/08/05 09:56:06;;;;;;;2.33;0.60;;;;;;;;;;5073932;28;20045;-77
2021/08/05 09:59:13;;;;;;;2.88;0.98;;;;;;;;;;5074413;28;20048;-76
2021/08/05 10:02:16;;;;;;;5.15;0.65;;;;;;;;;;5074722;28;20040;-75
2021/08/05 10:05:24;;;;;;;1.42;0.60;;;;;;;;;;5074099;28;20630;-75
2021/08/05 10:08:34;;;;;;;2.35;0.35;;;;;;;;;;5074033;28;20036;-76
2021/08/05 10:11:38;;;;;;;2.53;0.80;;;;;;;;;;5074241;28;20048;-75
2021/08/05 10:14:41;;;;;;;10.32;0.32;;;;;;;;;;5074165;28;20040;-76
2021/08/05 10:17:45;;;;;;;3.05;0.95;;;;;;;;;;5074024;28;20047;-76
2021/08/05 10:20:48;;;;;;;6.85;1.10;;;;;;;;;;5074312;28;20037;-75
2021/08/05 10:23:52;;;;;;;1.00;0.80;;;;;;;;;;5074292;28;20037;-75
2021/08/05 10:26:55;;;;;;;6.60;0.98;;;;;;;;;;5073263;28;20366;-76
2021/08/05 10:29:59;;;;;;;2.20;0.50;;;;;;;;;;5073919;28;20037;-75
2021/08/05 10:33:02;;;;;;;4.22;0.57;;;;;;;;;;5073927;28;20045;-76
2021/08/05 10:36:06;;;;;;;6.25;1.08;;;;;;;;;;5073560;28;20477;-76
2021/08/05 10:39:09;;;;;;;3.70;1.00;;;;;;;;;;5073327;28;20044;-76
2021/08/05 10:42:17;;;;;;;6.00;1.58;;;;;;;;;;5073647;28;20041;-75
2021/08/05 10:45:21;;;;;;;3.45;1.35;;;;;;;;;;5073550;28;20044;-76
2021/08/05 10:48:25;;;;;;;2.60;0.70;;;;;;;;;;5073303;28;20377;-75
2021/08/05 10:51:28;;;;;;;1.80;0.73;;;;;;;;;;5073212;28;20040;-75
2021/08/05 10:54:46;;;;;;;8.18;1.48;;;;;;;;;;5072897;28;20036;-75
2021/08/05 10:58:09;;;;;;;3.80;1.17;;;;;;;;;;5073555;28;20037;-75
2021/08/05 11:01:12;;;;;;;3.13;0.35;;;;;;;;;;5073503;28;20040;-74
2021/08/05 11:04:34;;;;;;;2.63;0.65;;;;;;;;;;5073671;28;20041;-75
2021/08/05 11:07:37;;;;;;;1.42;0.40;;;;;;;;;;5072623;28;20040;-76
2021/08/05 11:10:41;;;;;;;2.72;0.70;;;;;;;;;;5072876;28;20044;-76
2021/08/05 11:13:44;;;;;;;3.72;0.68;;;;;;;;;;5073117;28;20044;-76
2021/08/05 11:16:54;;;;;;;2.55;1.40;;;;;;;;;;5073224;28;20044;-75
2021/08/05 11:20:14;;;;;;;2.03;0.40;;;;;;;;;;5072851;28;20049;-75
2021/08/05 11:23:36;;;;;;;2.45;0.68;;;;;;;;;;5073001;28;20048;-76
2021/08/05 11:26:59;;;;;;;1.85;0.50;;;;;;;;;;5052511;28;20045;-76
2021/08/05 11:30:22;;;;;;;2.60;0.43;;;;;;;;;;5053001;28;20041;-76
2021/08/05 11:33:41;;;;;;;4.55;0.73;;;;;;;;;;5052591;28;20387;-76
2021/08/05 11:36:47;;;;;;;2.85;0.60;;;;;;;;;;5052375;28;20485;-77
2021/08/05 11:39:57;;;;;;;3.25;0.77;;;;;;;;;;5052796;28;20045;-75
2021/08/05 11:43:19;;;;;;;1.88;0.73;;;;;;;;;;5052693;28;20053;-74
2021/08/05 11:46:22;;;;;;;1.77;0.25;;;;;;;;;;5052270;28;20049;-74
2021/08/05 11:49:32;;;;;;;1.23;0.47;;;;;;;;;;5052409;28;20033;-76
2021/08/05 11:52:36;;;;;;;0.20;0.20;;;;;;;;;;5052300;28;20037;-75
2021/08/05 11:55:40;;;;;;;3.45;0.70;;;;;;;;;;5051876;28;20466;-74
2021/08/05 11:58:43;;;;;;;1.58;0.20;;;;;;;;;;5052068;28;20040;-74
2021/08/05 12:02:22;;;;;;;5.95;0.50;;;;;;;;;;5052330;28;20032;-74
2021/08/05 12:05:26;;;;;;;1.60;0.40;;;;;;;;;;5030818;28;20038;-75
2021/08/05 12:08:29;;;;;;;1.52;0.30;;;;;;;;;;5051688;28;20036;-75
2021/08/05 12:11:32;;;;;;;1.73;1.05;;;;;;;;;;5051839;28;20041;-74
2021/08/05 12:14:35;;;;;;;4.20;0.43;;;;;;;;;;5052085;28;20367;-76
2021/08/05 12:17:43;;;;;;;7.13;0.60;;;;;;;;;;5052084;28;20041;-77
2021/08/05 12:20:46;;;;;;;2.25;0.43;;;;;;;;;;5051758;28;20040;-76
2021/08/05 12:23:53;;;;;;;1.85;0.40;;;;;;;;;;5052223;28;20040;-76
2021/08/05 12:26:57;;;;;;;4.78;0.65;;;;;;;;;;5052055;28;20045;-76
2021/08/05 12:30:00;;;;;;;0.88;0.50;;;;;;;;;;5052016;28;20049;-75
2021/08/05 12:33:05;;;;;;;2.92;0.40;;;;;;;;;;5051985;28;20049;-76
2021/08/05 12:36:09;;;;;;;1.30;0.68;;;;;;;;;;5052791;28;20045;-76
2021/08/05 12:39:12;;;;;;;1.75;0.57;;;;;;;;;;5051216;28;20374;-75
2021/08/05 12:42:16;;;;;;;1.23;0.40;;;;;;;;;;5052349;28;20037;-79
2021/08/05 12:45:20;;;;;;;0.68;0.20;;;;;;;;;;5051621;28;20033;-76
2021/08/05 12:48:23;;;;;;;6.90;0.43;;;;;;;;;;5051985;28;20366;-74
2021/08/05 12:51:28;;;;;;;7.28;1.10;;;;;;;;;;5055814;28;20033;-75
2021/08/05 12:54:32;;;;;;;1.40;0.50;;;;;;;;;;5055968;28;20032;-75
2021/08/05 12:57:37;;;;;;;5.13;0.80;;;;;;;;;;5055407;28;20045;-75
2021/08/05 13:00:40;;;;;;;2.47;0.40;;;;;;;;;;5069655;28;20377;-75
2021/08/05 13:03:44;;;;;;;3.25;0.82;;;;;;;;;;5075187;28;20040;-74
2021/08/05 13:06:50;;;;;;;1.50;0.57;;;;;;;;;;5075241;28;20037;-76
2021/08/05 13:09:57;;;;;;;4.80;0.55;;;;;;;;;;5074582;28;20040;-74
2021/08/05 13:13:00;;;;;;;1.70;0.28;;;;;;;;;;5075359;28;20049;-76
2021/08/05 13:16:22;;;;;;;4.78;1.00;;;;;;;;;;5075305;28;20040;-77
2021/08/05 13:19:25;;;;;;;5.68;1.17;;;;;;;;;;5074887;28;20398;-73
2021/08/05 13:22:34;;;;;;;4.50;0.70;;;;;;;;;;5073919;28;20041;-72
2021/08/05 13:25:39;;;;;;;0.73;0.43;;;;;;;;;;5074656;28;20032;-72
2021/08/05 13:28:42;;;;;;;1.10;0.20;;;;;;;;;;5074754;28;20041;-73
2021/08/05 13:31:58;;;;;;;2.92;0.82;;;;;;;;;;5074826;28;20036;-72
2021/08/05 13:35:11;;;;;;;2.58;0.75;;;;;;;;;;5074862;28;20473;-73
2021/08/05 13:38:14;;;;;;;1.85;0.30;;;;;;;;;;5075071;28;20041;-73
2021/08/05 13:41:18;;;;;;;1.23;0.40;;;;;;;;;;5074999;28;20052;-73
2021/08/05 13:44:21;;;;;;;0.63;0.20;;;;;;;;;;5074835;28;20480;-77
2021/08/05 13:47:24;;;;;;;1.75;0.45;;;;;;;;;;5074362;28;20044;-74
2021/08/05 13:50:28;;;;;;;1.80;0.60;;;;;;;;;;5074823;28;20048;-77
2021/08/05 13:53:32;;;;;;;2.92;0.75;;;;;;;;;;5073003;28;20374;-76
2021/08/05 13:56:35;;;;;;;3.58;0.45;;;;;;;;;;5073060;28;20048;-79
2021/08/05 13:59:38;;;;;;;6.97;0.70;;;;;;;;;;5073336;28;20053;-80
2021/08/05 14:02:43;;;;;;;2.70;0.55;;;;;;;;;;5073479;28;20037;-77
2021/08/05 14:05:47;;;;;;;0.47;0.20;;;;;;;;;;5073924;28;20044;-77
2021/08/05 14:08:50;;;;;;;1.52;0.43;;;;;;;;;;5074406;28;20041;-76
2021/08/05 14:11:53;;;;;;;5.43;0.90;;;;;;;;;;5074002;28;20041;-78
2021/08/05 14:17:26;;;;;;;2.10;0.55;;;;;;;17.29;100.00;98321.63;5045868;27;20728;-78
2021/08/05 14:20:29;;;;;;;2.38;0.63;;;;;;;17.29;100.00;98321.63;5033566;28;20074;-77
2021/08/05 14:23:32;;;;;;;1.25;0.52;;;;;;;17.29;100.00;98321.63;5047621;28;20056;-77
2021/08/05 14:26:35;;;;;;;2.08;0.90;;;;;;;17.59;100.00;98304.81;5037239;28;20477;-79
2021/08/05 14:29:38;;;;;;;2.58;0.70;;;;;;;-96.45;100.00;76212.91;5037022;28;20121;-74
2021/08/05 14:32:41;;;;;;;3.20;0.63;;;;;;;17.40;100.00;98298.75;5038122;28;20452;-78
2021/08/05 14:35:44;;;;;;;1.05;0.73;;;;;;;17.40;100.00;98298.75;5048100;28;20060;-78
2021/08/05 14:38:47;;;;;;;0.45;0.20;;;;;;;17.40;100.00;74826.00;5046893;28;20647;-80
2021/08/05 14:41:51;;;;;;;1.30;0.65;;;;;;;-142.77;100.00;74826.00;5047952;28;20068;-74
2021/08/05 14:44:54;;;;;;;1.65;0.45;;;;;;;-142.77;100.00;74826.00;5001064;28;111259;-75
2021/08/05 14:47:57;;;;;;;2.88;0.77;;;;;;;-142.77;100.00;74826.00;5047260;28;20417;-75
2021/08/05 14:51:02;;;;;;;3.20;1.55;;;;;;;-142.77;100.00;74826.00;5047964;28;20055;-74
2021/08/05 14:54:05;;;;;;;2.67;0.88;;;;;;;-142.77;100.00;74826.00;5047552;28;20064;-74
2021/08/05 14:57:08;;;;;;;1.63;0.70;;;;;;;-142.77;100.00;74826.00;5047194;28;20111;-74
2021/08/05 15:00:11;;;;;;;2.28;0.68;;;;;;;-142.77;100.00;74826.00;5047011;28;20103;-74
2021/08/05 15:04:15;;;;;;;2.75;0.77;;;;;;;16.94;100.00;76242.78;5028429;27;21060;-77
2021/08/05 15:09:41;;;;;;;2.78;0.50;;;;;;;16.50;100.00;98243.72;5048737;27;20400;-73
2021/08/05 15:12:44;;;;;;;0.57;0.30;;;;;;;-142.49;100.00;98258.28;5057083;28;20059;-74
2021/08/05 15:19:36;;;;;;;0.40;0.30;;;;;;;16.51;100.00;98234.00;5104743;27;20404;-74
2021/08/05 15:22:39;;;;;;;3.53;1.25;;;;;;;16.53;100.00;98228.56;5108101;28;20106;-73
2021/08/05 15:25:42;;;;;;;1.95;0.20;;;;;;;16.53;100.00;98228.56;5076446;28;20066;-75
2021/08/05 15:28:45;;;;;;;0.77;0.35;;;;;;;-142.77;100.00;99037.47;5086300;28;59500;-76
2021/08/05 15:31:48;;;;;;;1.08;0.35;;;;;;;16.51;100.00;98205.13;5076791;28;20420;-76
2021/08/05 15:34:51;;;;;;;2.20;0.70;;;;;;;16.51;100.00;98205.13;5086177;28;20125;-76
2021/08/05 15:39:49;;;;;;;3.50;0.68;;;;;;;-142.77;100.00;98185.03;5006568;27;20915;-77
2021/08/05 15:42:52;;;;;;;1.15;0.50;;;;;;;16.40;100.00;76249.16;5007014;28;20065;-75
2021/08/05 15:45:55;;;;;;;4.10;0.63;;;;;;;16.29;100.00;98167.19;5028367;28;20057;-78
2021/08/05 15:48:58;;;;;;;1.10;0.17;;;;;;;21.94;100.00;98168.63;5011980;28;20065;-78
2021/08/05 15:52:01;;;;;;;1.33;0.70;;;;;;;-142.68;100.00;98172.53;5009827;28;20108;-77
2021/08/05 15:55:05;;;;;;;0.50;0.30;;;;;;;16.00;100.00;98153.75;5030493;28;20057;-78
2021/08/05 15:58:08;;;;;;;2.45;0.70;;;;;;;15.89;100.00;98152.00;5030483;28;20410;-77
2021/08/05 16:01:12;;;;;;;2.38;0.52;;;;;;;15.89;100.00;98152.00;5008649;28;20061;-77
2021/08/05 16:04:15;;;;;;;1.23;0.40;;;;;;;-142.77;100.00;74826.00;5008569;28;20153;-79
2021/08/05 16:07:18;;;;;;;2.90;1.10;;;;;;;-142.77;100.00;74826.00;4997132;28;20457;-77
2021/08/05 16:10:23;;;;;;;2.10;0.63;;;;;;;-142.77;100.00;74826.00;4990066;28;20057;-78
2021/08/05 16:13:26;;;;;;;1.95;0.90;;;;;;;-142.77;100.00;74826.00;5007938;28;20057;-77
2021/08/05 16:16:29;;;;;;;2.85;0.68;;;;;;;-142.77;100.00;74826.00;5007585;28;20053;-78
2021/08/05 16:19:33;;;;;;;1.15;0.60;;;;;;;-142.77;100.00;74826.00;5008376;28;20565;-78
2021/08/05 16:22:40;;;;;;;2.78;0.60;;;;;;;-142.77;100.00;74826.00;5008108;28;20061;-77
2021/08/05 16:25:42;;;;;;;2.63;0.73;;;;;;;-142.77;100.00;74826.00;5006956;28;20069;-76
2021/08/05 16:28:45;;;;;;;0.90;0.63;;;;;;;-142.77;100.00;74826.00;5008059;28;20061;-76
2021/08/05 16:31:50;;;;;;;1.58;0.47;;;;;;;-142.77;100.00;74826.00;5007864;28;20057;-79
2021/08/05 16:34:53;;;;;;;5.57;1.35;;;;;;;-142.77;100.00;74826.00;5008783;28;20138;-76
2021/08/05 16:37:58;;;;;;;1.00;0.55;;;;;;;-142.77;100.00;74826.00;5007436;28;20061;-76
2021/08/05 16:41:01;;;;;;;2.17;0.65;;;;;;;-142.77;100.00;74826.00;5009345;28;20119;-78
2021/08/05 16:44:04;;;;;;;2.75;1.00;;;;;;;-142.77;100.00;74826.00;5008809;28;20065;-77
2021/08/05 16:47:11;;;;;;;3.00;0.60;;;;;;;-142.77;100.00;74826.00;5008547;28;20106;-79
2021/08/05 16:50:14;;;;;;;2.10;0.75;;;;;;;-142.77;100.00;74826.00;5020260;28;20124;-79
2021/08/05 16:53:17;;;;;;;2.22;0.57;;;;;;;-142.77;100.00;74826.00;4993424;28;20053;-80
2021/08/05 16:56:20;;;;;;;2.08;0.50;;;;;;;-142.77;100.00;74826.00;5015864;28;20052;-79
2021/08/05 16:59:23;;;;;;;1.00;0.90;;;;;;;-142.77;100.00;74826.00;4993606;28;20105;-78
2021/08/05 17:02:26;;;;;;;2.22;0.50;;;;;;;-142.77;100.00;74826.00;5015867;28;20093;-79
2021/08/05 17:05:29;;;;;;;0.93;0.55;;;;;;;-142.77;100.00;74826.00;4993993;28;20078;-78
2021/08/05 17:08:33;;;;;;;0.32;0.20;;;;;;;-142.77;100.00;74826.00;4993992;28;20073;-78
2021/08/05 17:11:36;;;;;;;3.45;0.75;;;;;;;-142.77;100.00;74826.00;4994395;28;22251;-78
2021/08/05 17:14:39;;;;;;;1.83;0.50;;;;;;;-142.77;100.00;74826.00;4994018;28;20061;-78
2021/08/05 17:17:41;;;;;;;1.45;0.57;;;;;;;-142.77;100.00;74826.00;4994476;28;20066;-78
2021/08/05 17:20:45;;;;;;;1.50;0.60;;;;;;;-142.77;100.00;74826.00;4993727;28;20069;-78
2021/08/05 17:23:48;;;;;;;1.80;0.60;;;;;;;-142.77;100.00;74826.00;4994261;28;20061;-77
2021/08/05 17:26:52;;;;;;;1.38;0.55;;;;;;;-142.77;100.00;74826.00;4993583;28;20122;-78
2021/08/05 17:29:55;;;;;;;2.05;0.95;;;;;;;-142.77;100.00;74826.00;4993229;28;20104;-79
2021/08/05 17:32:58;;;;;;;4.38;1.38;;;;;;;-142.77;100.00;74826.00;4994472;28;20104;-77
2021/08/05 17:36:01;;;;;;;1.58;0.85;;;;;;;-142.77;100.00;74826.00;4994312;28;20124;-78